Time;durP1;ratioP1;P1;durP2;ratioP2;P2;SDS_P1;SDS_P2;PMS_P1;PMS_P2;Temp;Humidity;BMP_temperature;BMP_pressure;BME280_temperature;BME280_humidity;BME280_pressure;Samples;Min_cycle;Max_cycle;Signal;HPM_P1;HPM_P2
2021/11/12 00:04:55;;;;;;;23.38;15.75;;;;;;;11.27;64.82;100944.00;5234629;22;20065;-81
2021/11/12 00:13:05;;;;;;;23.63;16.30;;;;;;;11.22;65.23;100938.53;4999367;28;20054;-81
2021/11/12 00:15:36;;;;;;;25.55;16.08;;;;;;;11.22;65.39;100944.09;4996596;28;20061;-81
2021/11/12 00:18:04;;;;;;;24.70;16.50;;;;;;;11.18;65.37;100933.53;4987007;28;20061;-80
2021/11/12 00:20:31;;;;;;;21.95;15.93;;;;;;;11.20;65.51;100933.25;4979129;28;20058;-81
2021/11/12 00:22:59;;;;;;;22.20;15.40;;;;;;;11.17;66.02;100929.13;4996326;28;20050;-80
2021/11/12 00:25:26;;;;;;;22.00;15.20;;;;;;;11.17;65.39;100942.19;4998214;28;20068;-80
2021/11/12 00:27:53;;;;;;;23.17;15.82;;;;;;;11.15;65.41;100936.13;4994708;28;20050;-80
2021/11/12 00:30:46;;;;;;;21.75;16.00;;;;;;;11.18;65.28;100935.50;5008640;28;20053;-81
2021/11/12 00:33:26;;;;;;;23.70;15.57;;;;;;;11.21;65.11;100934.06;4991106;28;20054;-80
2021/11/12 00:36:01;;;;;;;20.90;13.98;;;;;;;11.22;65.03;100925.41;4996925;28;20073;-80
2021/11/12 00:38:33;;;;;;;21.88;14.63;;;;;;;11.21;64.83;100929.31;4983324;28;20546;-80
2021/11/12 00:41:12;;;;;;;21.88;14.00;;;;;;;11.21;64.84;100932.09;4997832;28;20050;-80
2021/11/12 00:43:41;;;;;;;24.52;14.63;;;;;;;11.13;65.01;100927.25;5002708;28;20065;-80
2021/11/12 00:46:14;;;;;;;19.75;13.52;;;;;;;11.05;65.82;100936.31;4998135;28;20050;-80
2021/11/12 00:48:46;;;;;;;23.83;14.05;;;;;;;11.13;65.31;100927.25;4990015;28;20057;-80
2021/11/12 00:51:19;;;;;;;19.20;13.15;;;;;;;11.06;65.28;100922.06;4995485;28;20050;-80
2021/11/12 00:56:24;;;;;;;18.23;12.98;;;;;;;10.99;65.53;100915.25;4997492;28;20042;-80
2021/11/12 00:58:53;;;;;;;17.38;12.90;;;;;;;10.99;65.92;100913.28;4996194;28;20050;-80
2021/11/12 01:01:23;;;;;;;21.13;13.27;;;;;;;10.96;65.80;100922.22;4990324;28;20514;-80
2021/11/12 01:03:51;;;;;;;;;;;;;;;10.88;65.59;100923.78;4997382;28;20062;-80
2021/11/12 01:06:20;;;;;;;19.02;12.70;;;;;;;10.93;65.95;100926.47;4996321;28;19928;-80
2021/11/12 01:08:47;;;;;;;20.45;13.25;;;;;;;10.94;65.97;100916.97;4994908;28;20410;-80
2021/11/12 01:11:17;;;;;;;18.67;12.38;;;;;;;10.96;65.81;100920.28;4996616;28;20058;-80
2021/11/12 01:13:47;;;;;;;18.05;12.65;;;;;;;10.93;65.94;100917.28;4996136;28;20049;-80
2021/11/12 01:16:18;;;;;;;17.85;12.02;;;;;;;10.91;66.09;100914.78;4996769;28;20059;-80
2021/11/12 01:18:46;;;;;;;17.88;11.43;;;;;;;10.88;65.92;100914.59;4996479;28;20061;-80
2021/11/12 01:21:17;;;;;;;17.38;11.75;;;;;;;10.82;66.13;100908.28;4996677;28;20050;-80
2021/11/12 01:23:49;;;;;;;17.20;10.88;;;;;;;10.87;65.99;100908.19;4991480;28;20062;-81
2021/11/12 01:26:17;;;;;;;19.13;12.40;;;;;;;10.87;66.11;100912.94;4994793;28;20055;-80
2021/11/12 01:28:44;;;;;;;7.60;5.15;;;;;;;10.84;65.64;100908.81;4998037;28;20054;-81
2021/11/12 01:31:12;;;;;;;7.47;5.70;;;;;;;10.82;65.10;100897.13;4996776;28;20054;-80
2021/11/12 01:33:41;;;;;;;6.57;4.35;;;;;;;10.75;64.75;100888.31;4999773;28;20061;-81
2021/11/12 01:36:19;;;;;;;6.40;4.37;;;;;;;10.60;65.27;100891.38;5010889;28;20065;-81
2021/11/12 01:38:48;;;;;;;7.10;5.43;;;;;;;10.40;65.58;100882.25;4988576;28;20858;-80
2021/11/12 01:41:16;;;;;;;7.13;5.07;;;;;;;10.47;65.80;100885.44;4992712;28;20522;-80
2021/11/12 01:43:46;;;;;;;5.65;4.63;;;;;;;10.50;65.55;100886.81;4993904;28;20054;-80
2021/11/12 01:46:33;;;;;;;5.80;4.65;;;;;;;10.56;65.45;100886.44;4996995;28;20611;-81
2021/11/12 01:51:48;;;;;;;6.93;4.95;;;;;;;10.47;65.26;100879.88;4984279;28;20057;-80
2021/11/12 01:54:35;;;;;;;7.13;5.20;;;;;;;10.39;65.81;100882.53;4992647;28;20050;-80
2021/11/12 01:59:48;;;;;;;7.05;4.85;;;;;;;10.29;65.66;100878.78;5004018;28;20066;-81
2021/11/12 02:02:16;;;;;;;7.13;5.25;;;;;;;10.30;65.52;100872.09;4990764;28;20062;-81
2021/11/12 02:04:43;;;;;;;7.93;6.10;;;;;;;10.26;65.61;100876.56;4991289;28;20062;-81
2021/11/12 02:07:12;;;;;;;6.90;4.93;;;;;;;10.19;65.99;100880.88;4991316;28;20054;-80
2021/11/12 02:09:41;;;;;;;7.00;4.95;;;;;;;10.11;65.67;100868.47;4981983;28;20506;-80
2021/11/12 02:12:18;;;;;;;6.40;4.55;;;;;;;10.00;65.71;100862.22;4995679;28;20062;-80
2021/11/12 02:14:47;;;;;;;5.32;4.25;;;;;;;9.90;65.87;100856.81;4989186;28;20055;-80
2021/11/12 02:17:18;;;;;;;10.00;4.97;;;;;;;9.78;66.06;100850.84;4993717;28;20054;-80
2021/11/12 02:19:53;;;;;;;7.85;5.00;;;;;;;9.69;66.42;100847.91;4994200;28;20046;-80
2021/11/12 02:22:26;;;;;;;5.80;4.50;;;;;;;9.62;66.13;100844.69;4987359;28;20051;-80
2021/11/12 02:24:58;;;;;;;6.68;5.05;;;;;;;9.50;66.60;100839.56;4982148;28;20077;-80
2021/11/12 02:27:32;;;;;;;7.38;5.25;;;;;;;9.37;67.09;100837.50;4999667;28;20049;-80
2021/11/12 02:29:59;;;;;;;6.55;4.88;;;;;;;9.32;66.38;100835.59;4999184;28;20925;-80
2021/11/12 02:32:28;;;;;;;7.10;4.85;;;;;;;9.25;66.59;100840.69;4994507;28;20046;-80
2021/11/12 02:35:01;;;;;;;6.68;5.07;;;;;;;9.16;66.64;100831.38;4991544;28;20043;-80
2021/11/12 02:37:32;;;;;;;7.80;5.05;;;;;;;9.07;67.15;100823.69;4986469;28;20061;-80
2021/11/12 02:40:01;;;;;;;7.55;5.60;;;;;;;9.02;66.45;100832.06;4998259;28;20069;-80
2021/11/12 02:42:28;;;;;;;6.32;5.25;;;;;;;8.94;66.91;100832.72;4994645;28;20050;-80
2021/11/12 02:44:56;;;;;;;7.07;5.18;;;;;;;8.84;67.12;100832.81;4990191;28;20077;-80
2021/11/12 02:47:24;;;;;;;6.32;5.43;;;;;;;8.74;67.10;100831.81;4996406;28;20376;-79
2021/11/12 02:49:56;;;;;;;6.43;5.35;;;;;;;8.67;67.26;100836.03;4986400;28;20051;-80
2021/11/12 02:52:23;;;;;;;7.03;5.25;;;;;;;8.61;67.06;100831.66;4992952;28;20061;-80
2021/11/12 02:54:53;;;;;;;8.27;5.95;;;;;;;8.47;67.71;100832.34;4993662;28;20061;-80
2021/11/12 02:57:23;;;;;;;7.97;6.07;;;;;;;8.41;67.48;100829.91;4993511;28;20403;-80
2021/11/12 02:59:53;;;;;;;8.55;5.93;;;;;;;8.30;67.66;100831.91;4991334;28;20058;-80
2021/11/12 03:02:20;;;;;;;;;;;;;;;8.12;67.81;100831.47;4991595;28;20427;-80
2021/11/12 03:04:47;;;;;;;7.93;6.35;;;;;;;8.07;67.94;100833.50;4990826;28;19921;-80
2021/11/12 03:07:14;;;;;;;8.48;6.72;;;;;;;8.01;68.04;100829.91;4985752;28;20055;-80
2021/11/12 03:09:42;;;;;;;8.13;6.25;;;;;;;7.88;68.47;100827.78;4976598;28;20435;-80
2021/11/12 03:12:11;;;;;;;7.88;5.82;;;;;;;7.80;67.99;100822.84;4976229;28;20067;-80
2021/11/12 03:14:38;;;;;;;11.95;6.68;;;;;;;7.68;68.27;100823.19;4985232;28;20061;-80
2021/11/12 03:17:06;;;;;;;7.05;5.50;;;;;;;7.64;67.50;100820.19;5004195;28;20077;-80
2021/11/12 03:19:35;;;;;;;8.07;5.97;;;;;;;7.55;67.97;100816.34;4994101;28;20392;-80
2021/11/12 03:22:06;;;;;;;10.75;6.45;;;;;;;7.49;68.49;100811.94;4982274;28;20510;-80
2021/11/12 03:24:36;;;;;;;9.35;6.50;;;;;;;7.34;68.58;100809.25;4995662;28;20055;-80
2021/11/12 03:27:14;;;;;;;9.30;6.50;;;;;;;7.27;68.25;100804.03;4993076;28;20287;-80
2021/11/12 03:49:55;;;;;;;8.63;5.68;;;;;;;6.62;68.58;100799.25;4954922;28;20388;-80
2021/11/12 04:00:42;;;;;;;9.32;6.07;;;;;;;6.21;69.80;100771.63;4989163;28;20061;-80
2021/11/12 04:03:16;;;;;;;9.48;6.85;;;;;;;6.17;70.08;100770.50;4999384;28;20050;-80
2021/11/12 04:19:41;;;;;;;8.05;5.80;;;;;;;5.97;70.05;100793.50;4992842;28;20077;-80
2021/11/12 04:31:11;;;;;;;9.32;6.45;;;;;;;5.62;70.37;100775.72;5001452;28;20065;-80
2021/11/12 05:09:57;;;;;;;7.63;5.40;;;;;;;5.11;70.09;100772.00;5002217;28;20053;-80
2021/11/12 05:12:47;;;;;;;;;;;;;;;4.98;70.60;100762.31;4989823;28;20055;-80
2021/11/12 05:34:38;;;;;;;6.22;4.85;;;;;;;4.65;71.33;100742.28;4983884;28;20050;-80
2021/11/12 05:45:31;;;;;;;7.85;5.25;;;;;;;4.63;70.51;100731.50;4989515;28;20081;-80
2021/11/12 05:50:58;;;;;;;7.65;5.68;;;;;;;4.47;71.59;100722.31;5001503;28;20422;-80
2021/11/12 05:56:10;;;;;;;7.10;5.32;;;;;;;4.44;71.65;100700.78;4995651;28;20057;-80
2021/11/12 05:58:39;;;;;;;8.15;5.50;;;;;;;4.45;71.38;100713.50;4997455;28;20050;-80
2021/11/12 06:01:06;;;;;;;6.85;5.50;;;;;;;4.39;71.37;100708.19;4993021;28;20054;-80
2021/11/12 06:03:34;;;;;;;10.68;5.13;;;;;;;4.41;70.89;100697.72;4997529;28;20407;-80
2021/11/12 06:06:02;;;;;;;8.27;5.53;;;;;;;4.31;71.02;100689.41;4997117;28;20054;-80
2021/11/12 06:08:29;;;;;;;6.85;5.10;;;;;;;4.31;70.38;100693.00;4997930;28;20054;-80
2021/11/12 06:10:56;;;;;;;8.70;4.75;;;;;;;4.31;70.62;100694.94;4993236;28;20081;-80
2021/11/12 06:13:24;;;;;;;6.57;4.72;;;;;;;4.30;70.39;100693.25;4995087;28;20050;-80
2021/11/12 06:15:53;;;;;;;8.35;4.55;;;;;;;4.30;70.32;100688.56;4993658;28;20513;-79
2021/11/12 06:18:21;;;;;;;7.55;4.78;;;;;;;4.25;69.92;100683.84;5012247;28;20450;-81
2021/11/12 06:20:49;;;;;;;7.72;5.05;;;;;;;4.20;69.87;100678.34;4996689;28;20058;-80
2021/11/12 06:23:16;;;;;;;7.65;4.85;;;;;;;4.20;69.85;100670.06;4997270;28;20065;-80
2021/11/12 06:25:43;;;;;;;8.63;6.28;;;;;;;4.11;70.88;100666.13;4992004;28;20054;-80
2021/11/12 06:28:10;;;;;;;10.82;6.38;;;;;;;4.10;71.08;100667.25;4981583;28;20057;-81
2021/11/12 06:30:38;;;;;;;10.43;6.90;;;;;;;4.09;71.55;100664.75;4994737;28;20054;-80
2021/11/12 06:33:06;;;;;;;10.80;6.55;;;;;;;4.11;70.91;100665.31;4991776;28;20050;-80
2021/11/12 06:35:34;;;;;;;10.95;7.28;;;;;;;4.11;71.46;100660.63;4987550;28;20506;-80
2021/11/12 06:38:01;;;;;;;10.38;7.78;;;;;;;4.13;71.10;100660.34;4991451;28;20065;-79
2021/11/12 06:40:29;;;;;;;12.05;7.35;;;;;;;4.11;71.24;100662.53;4995204;28;20057;-79
2021/11/12 06:43:07;;;;;;;12.10;8.32;;;;;;;4.14;71.03;100651.00;4984934;28;20054;-79
2021/11/12 06:51:12;;;;;;;12.50;8.00;;;;;;;4.14;70.47;100651.00;4970480;28;20070;-80
2021/11/12 06:53:39;;;;;;;11.40;7.65;;;;;;;4.15;70.69;100636.94;4976315;28;20484;-80
2021/11/12 06:56:07;;;;;;;11.60;7.82;;;;;;;4.02;70.84;100637.41;4988902;28;20046;-80
2021/11/12 06:58:37;;;;;;;10.65;7.63;;;;;;;4.11;70.95;100624.78;4993411;28;20050;-79
2021/11/12 07:01:05;;;;;;;12.45;8.45;;;;;;;4.05;70.96;100623.94;4987273;28;20058;-80
2021/11/12 07:03:35;;;;;;;10.35;7.63;;;;;;;4.10;71.14;100614.03;4985694;28;20062;-79
2021/11/12 07:06:03;;;;;;;11.50;8.07;;;;;;;4.11;71.13;100612.94;4987457;28;20050;-80
2021/11/12 07:08:30;;;;;;;9.50;6.63;;;;;;;4.16;71.27;100604.69;4990896;28;20058;-79
2021/11/12 07:10:58;;;;;;;9.52;6.85;;;;;;;4.21;71.22;100604.72;4995034;28;20061;-79
2021/11/12 07:13:28;;;;;;;12.70;6.78;;;;;;;4.25;70.83;100600.31;4986066;28;20050;-79
2021/11/12 07:15:57;;;;;;;10.52;6.28;;;;;;;4.30;70.39;100596.75;4984117;28;20431;-79
2021/11/12 07:18:29;;;;;;;11.00;8.18;;;;;;;4.34;70.52;100593.19;4991761;28;20061;-79
2021/11/12 07:20:58;;;;;;;12.10;7.75;;;;;;;4.35;70.72;100591.28;4997821;28;20061;-79
2021/11/12 07:23:27;;;;;;;14.32;10.25;;;;;;;4.40;70.90;100591.28;4992612;28;20055;-80
2021/11/12 07:25:56;;;;;;;23.25;11.13;;;;;;;4.44;70.80;100593.22;4995679;28;20050;-80
2021/11/12 07:28:25;;;;;;;16.92;8.65;;;;;;;4.50;70.52;100587.75;5001588;28;20070;-80
2021/11/12 07:30:56;;;;;;;12.57;7.83;;;;;;;4.55;70.60;100584.97;4998269;28;20050;-87
2021/11/12 07:33:27;;;;;;;11.43;8.23;;;;;;;4.63;70.31;100579.75;4995114;28;20061;-87
2021/11/12 07:36:00;;;;;;;13.95;9.77;;;;;;;4.68;70.97;100576.19;4994458;28;20057;-87
2021/11/12 07:38:31;;;;;;;17.95;12.57;;;;;;;4.68;72.90;100581.69;4998827;28;20497;-87
2021/11/12 07:41:17;;;;;;;14.57;10.52;;;;;;;4.87;73.32;100574.56;4992272;28;20047;-87
2021/11/12 07:46:39;;;;;;;15.50;10.90;;;;;;;5.42;71.87;100571.28;4989204;28;20081;-85
2021/11/12 07:49:09;;;;;;;13.63;8.82;;;;;;;5.81;70.55;100565.94;5003403;28;20062;-85
2021/11/12 07:51:37;;;;;;;12.98;8.98;;;;;;;6.19;69.58;100571.13;4991160;28;20084;-85
2021/11/12 07:54:06;;;;;;;12.68;8.55;;;;;;;7.61;68.19;100554.63;4984446;28;20058;-80
2021/11/12 07:56:33;;;;;;;10.77;7.53;;;;;;;9.29;64.61;100536.81;4980349;28;20054;-81
2021/11/12 07:59:01;;;;;;;10.30;8.48;;;;;;;10.92;60.95;100529.06;4989239;28;20050;-81
2021/11/12 08:01:29;;;;;;;8.00;6.63;;;;;;;12.50;55.22;100523.13;4998214;28;20047;-81
2021/11/12 08:03:58;;;;;;;7.68;6.07;;;;;;;13.30;51.90;100517.25;4997631;28;20046;-81
2021/11/12 08:06:27;;;;;;;;;;;;;;;14.80;45.16;100513.41;4996373;28;20047;-79
2021/11/12 08:08:57;;;;;;;8.90;6.72;;;;;;;15.68;45.93;100499.34;4992104;28;19929;-79
2021/11/12 08:11:31;;;;;;;8.15;7.28;;;;;;;16.56;41.86;100500.66;4983436;28;20077;-79
2021/11/12 08:14:04;;;;;;;15.13;12.40;;;;;;;17.95;38.87;100494.53;4993510;28;20047;-79
2021/11/12 08:19:21;;;;;;;39.83;35.20;;;;;;;20.13;34.64;100494.66;4993627;28;20399;-80
2021/11/12 08:21:55;;;;;;;16.63;15.00;;;;;;;20.56;33.42;100488.88;4997567;28;20061;-80
2021/11/12 08:24:32;;;;;;;16.85;15.05;;;;;;;20.96;32.68;100491.06;4998879;28;20084;-81
2021/11/12 08:27:10;;;;;;;7.45;6.75;;;;;;;21.49;31.30;100490.88;4991009;28;20408;-81
2021/11/12 08:32:45;;;;;;;8.60;7.70;;;;;;;22.65;29.79;100473.59;4960872;28;20065;-83
2021/11/12 08:35:33;;;;;;;9.90;7.75;;;;;;;23.01;29.13;100476.63;4998966;28;20062;-83
2021/11/12 08:38:08;;;;;;;7.10;5.90;;;;;;;23.67;27.76;100478.44;4996475;28;20431;-84
2021/11/12 08:40:46;;;;;;;6.82;6.13;;;;;;;23.32;28.38;100468.63;4996918;28;20066;-82
2021/11/12 08:43:18;;;;;;;8.07;6.45;;;;;;;24.29;27.05;100465.88;5002106;28;20093;-85
2021/11/12 08:45:58;;;;;;;6.82;6.13;;;;;;;23.91;27.23;100465.47;5014813;28;20057;-85
2021/11/12 08:48:36;;;;;;;6.57;5.97;;;;;;;24.29;27.41;100460.97;5003141;28;20065;-86
2021/11/12 08:51:06;;;;;;;7.07;6.38;;;;;;;25.14;26.44;100451.81;5011650;28;20050;-85
2021/11/12 08:53:34;;;;;;;6.80;6.20;;;;;;;25.29;25.96;100459.06;4991136;28;20050;-84
2021/11/12 09:00:04;;;;;;;8.13;7.22;;;;;;;25.97;24.66;100454.94;5002508;28;20057;-86
2021/11/12 09:02:34;;;;;;;7.00;6.38;;;;;;;26.31;24.85;100464.44;4981705;28;20051;-84
2021/11/12 09:05:04;;;;;;;8.27;7.47;;;;;;;26.97;23.72;100459.63;5006050;28;20058;-83
2021/11/12 09:07:32;;;;;;;7.75;6.80;;;;;;;27.26;23.66;100465.00;4988003;28;20055;-86
2021/11/12 09:10:00;;;;;;;8.43;7.63;;;;;;;26.79;24.02;100471.25;4993522;28;20061;-86
2021/11/12 09:12:29;;;;;;;8.00;7.22;;;;;;;27.32;23.56;100460.44;4978700;28;20051;-86
2021/11/12 09:15:10;;;;;;;8.38;7.63;;;;;;;26.51;24.37;100455.25;4995991;28;20042;-83
2021/11/12 09:17:46;;;;;;;8.38;7.60;;;;;;;27.32;23.38;100457.56;4998693;28;20054;-83
2021/11/12 09:20:13;;;;;;;8.05;7.28;;;;;;;27.97;22.48;100460.28;4998784;28;20058;-84
2021/11/12 09:22:41;;;;;;;8.73;7.88;;;;;;;26.64;23.31;100476.34;4993148;28;21789;-81
2021/11/12 09:25:10;;;;;;;9.40;8.40;;;;;;;26.57;23.12;100478.47;4997241;28;20046;-84
2021/11/12 09:27:38;;;;;;;9.60;8.70;;;;;;;27.10;22.90;100480.69;4996194;28;20054;-83
2021/11/12 09:30:08;;;;;;;9.40;8.50;;;;;;;25.87;23.67;100482.31;5010465;28;20054;-85
2021/11/12 09:32:36;;;;;;;10.20;9.20;;;;;;;26.02;23.95;100483.06;4998160;28;20054;-85
2021/11/12 09:35:06;;;;;;;9.52;8.52;;;;;;;26.47;23.13;100485.88;5004611;28;20057;-85
2021/11/12 09:37:33;;;;;;;9.52;8.63;;;;;;;26.33;23.72;100486.81;4990170;28;20062;-85
2021/11/12 09:40:00;;;;;;;9.00;8.10;;;;;;;26.81;23.31;100474.50;5004743;28;20498;-85
2021/11/12 09:42:32;;;;;;;10.05;9.02;;;;;;;26.67;23.30;100472.66;5011895;28;20394;-84
2021/11/12 09:45:00;;;;;;;9.70;8.70;;;;;;;26.82;23.12;100470.44;5003020;28;20054;-82
2021/11/12 09:47:28;;;;;;;9.88;8.85;;;;;;;27.24;23.11;100478.94;5003221;28;20054;-84
2021/11/12 09:50:03;;;;;;;9.68;8.77;;;;;;;27.58;23.13;100475.97;4991823;28;20054;-83
2021/11/12 09:52:33;;;;;;;10.93;9.88;;;;;;;27.94;22.19;100479.09;4988809;28;20050;-82
2021/11/12 09:55:02;;;;;;;11.13;9.95;;;;;;;28.09;22.31;100476.00;4999148;28;20041;-82
2021/11/12 09:57:30;;;;;;;11.63;10.00;;;;;;;27.97;21.92;100479.47;5004615;28;20058;-80
2021/11/12 10:00:02;;;;;;;12.57;11.05;;;;;;;28.65;21.13;100467.63;4987675;28;20065;-82
2021/11/12 10:02:33;;;;;;;12.05;9.38;;;;;;;28.85;21.01;100464.78;4993802;28;20061;-82
2021/11/12 10:05:01;;;;;;;10.57;9.48;;;;;;;29.19;20.62;100462.88;5006873;28;20065;-82
2021/11/12 10:07:38;;;;;;;10.95;9.90;;;;;;;29.15;20.47;100465.84;5002066;28;20057;-81
2021/11/12 10:10:14;;;;;;;11.25;10.15;;;;;;;29.37;20.53;100454.66;4988161;28;20050;-84
2021/11/12 10:12:44;;;;;;;10.52;9.60;;;;;;;29.52;19.83;100464.59;4996171;28;20522;-83
2021/11/12 10:15:15;;;;;;;10.30;9.32;;;;;;;29.12;19.95;100452.38;5000798;28;20078;-84
2021/11/12 10:17:44;;;;;;;10.95;9.95;;;;;;;28.34;21.19;100458.38;4994181;28;20064;-84
2021/11/12 10:20:14;;;;;;;10.88;9.88;;;;;;;29.15;20.39;100448.63;4995252;28;20073;-84
2021/11/12 10:22:44;;;;;;;10.88;9.88;;;;;;;29.35;20.20;100451.44;4999917;28;20515;-81
2021/11/12 10:25:12;;;;;;;10.57;9.55;;;;;;;29.33;20.09;100456.81;4996402;28;20557;-81
2021/11/12 10:27:50;;;;;;;10.48;9.48;;;;;;;29.66;20.02;100451.13;5005448;28;20061;-81
2021/11/12 10:30:20;;;;;;;11.20;10.10;;;;;;;29.68;19.63;100440.00;4995324;28;20466;-84
2021/11/12 10:32:48;;;;;;;10.85;9.75;;;;;;;30.20;19.32;100439.13;5000809;28;20055;-84
2021/11/12 10:35:24;;;;;;;10.88;9.73;;;;;;;29.39;19.49;100434.16;4994984;28;20066;-84
2021/11/12 10:37:54;;;;;;;9.68;8.77;;;;;;;29.55;20.42;100420.63;4987418;28;20056;-85
2021/11/12 10:40:23;;;;;;;10.75;9.73;;;;;;;28.72;19.94;100415.88;4987857;28;20054;-85
2021/11/12 10:42:57;;;;;;;10.35;8.95;;;;;;;28.81;20.12;100400.97;4987207;28;20491;-85
2021/11/12 10:45:28;;;;;;;10.65;9.20;;;;;;;27.28;21.33;100393.88;4998125;28;20065;-83
2021/11/12 10:47:57;;;;;;;10.43;8.95;;;;;;;25.71;23.33;100400.91;4997956;28;20126;-82
2021/11/12 10:50:26;;;;;;;9.57;8.57;;;;;;;27.32;21.41;100394.66;4994479;28;20065;-81
2021/11/12 10:52:59;;;;;;;9.88;8.88;;;;;;;27.38;21.58;100387.16;4992749;28;20066;-85
2021/11/12 10:55:27;;;;;;;8.98;8.07;;;;;;;26.43;21.73;100397.38;4988953;28;20420;-80
2021/11/12 10:57:58;;;;;;;9.52;8.32;;;;;;;25.21;23.15;100400.47;4995737;28;20053;-82
2021/11/12 11:00:27;;;;;;;9.40;8.48;;;;;;;25.99;22.42;100392.53;5000353;28;20069;-83
2021/11/12 11:03:13;;;;;;;10.38;9.38;;;;;;;26.63;21.97;100389.00;4992015;28;20061;-82
2021/11/12 11:05:42;;;;;;;9.77;8.70;;;;;;;27.10;20.93;100377.75;4981200;28;20058;-82
2021/11/12 11:08:20;;;;;;;10.13;8.02;;;;;;;26.83;21.45;100374.06;4997052;28;20054;-81
2021/11/12 11:10:53;;;;;;;8.95;8.02;;;;;;;27.36;20.81;100363.91;4985529;28;20050;-81
2021/11/12 11:13:22;;;;;;;9.10;8.25;;;;;;;27.35;20.68;100376.59;4987626;28;20050;-78
2021/11/12 11:15:50;;;;;;;10.32;8.07;;;;;;;27.67;20.78;100375.28;4981120;28;20059;-78
2021/11/12 11:18:21;;;;;;;10.27;7.78;;;;;;;27.21;20.97;100368.22;4991766;28;20070;-78
2021/11/12 11:20:57;;;;;;;8.50;7.70;;;;;;;28.15;20.05;100365.44;4996009;28;20061;-80
2021/11/12 11:23:27;;;;;;;9.95;8.68;;;;;;;28.45;19.77;100360.75;5000595;28;20047;-77
2021/11/12 11:25:58;;;;;;;11.90;8.75;;;;;;;27.75;20.32;100371.03;4982516;28;20046;-80
2021/11/12 11:28:34;;;;;;;8.73;7.82;;;;;;;25.26;22.87;100366.63;4990166;28;20060;-86
2021/11/12 11:31:03;;;;;;;9.48;8.57;;;;;;;26.04;22.58;100361.50;4991685;28;20050;-77
2021/11/12 11:33:32;;;;;;;9.55;8.55;;;;;;;25.48;22.92;100355.88;4979635;28;20137;-79
2021/11/12 11:36:02;;;;;;;9.60;8.35;;;;;;;25.82;22.61;100358.00;4982965;28;20055;-76
2021/11/12 11:38:34;;;;;;;10.18;8.77;;;;;;;24.57;23.59;100356.81;4990017;28;20069;-76
2021/11/12 11:41:04;;;;;;;9.75;8.18;;;;;;;25.43;23.09;100336.38;4988193;28;20047;-79
2021/11/12 11:43:32;;;;;;;8.93;8.02;;;;;;;25.63;23.13;100319.47;4980982;28;20050;-79
2021/11/12 11:46:02;;;;;;;8.93;8.00;;;;;;;25.96;23.17;100311.44;4989989;28;20492;-79
2021/11/12 11:48:35;;;;;;;9.60;7.97;;;;;;;27.40;21.79;100304.59;4978608;28;20523;-79
2021/11/12 11:51:04;;;;;;;9.48;7.72;;;;;;;27.28;21.49;100296.66;5000359;28;20055;-79
2021/11/12 11:53:39;;;;;;;10.10;8.65;;;;;;;27.51;21.49;100285.19;4994134;28;20484;-78
2021/11/12 11:56:20;;;;;;;8.98;8.05;;;;;;;27.31;20.78;100290.84;4997981;28;20073;-79
2021/11/12 11:58:49;;;;;;;8.57;7.55;;;;;;;27.10;20.76;100291.19;4986891;28;20050;-79
2021/11/12 12:01:36;;;;;;;7.38;6.60;;;;;;;27.48;20.80;100282.41;4989324;28;20514;-78
2021/11/12 12:04:33;;;;;;;7.68;6.95;;;;;;;28.04;19.53;100285.47;4978531;28;20063;-78
2021/11/12 12:07:21;;;;;;;8.80;7.43;;;;;;;27.64;19.81;100284.56;4996843;28;20364;-79
2021/11/12 12:09:54;;;;;;;7.25;6.25;;;;;;;28.00;19.75;100278.19;5042193;22;20405;-79
2021/11/12 12:12:58;;;;;;;7.80;7.00;;;;;;;27.68;19.49;100279.59;5058251;28;20425;-79
2021/11/12 12:15:38;;;;;;;10.07;7.13;;;;;;;29.02;18.69;100284.16;4995906;28;20050;-79
2021/11/12 12:18:20;;;;;;;;;;;;;;;28.28;18.99;100282.53;5002209;28;20642;-78
2021/11/12 13:22:49;;;;;;;8.95;7.10;;;;;;;23.10;24.43;100249.78;5056186;28;20079;-84
2021/11/12 13:25:30;;;;;;;9.48;7.07;;;;;;;22.51;25.28;100246.44;5054651;28;20060;-85
2021/11/12 13:28:19;;;;;;;8.35;6.95;;;;;;;21.84;26.48;100240.06;5056538;28;20041;-85
2021/11/12 13:30:50;;;;;;;9.15;6.95;;;;;;;21.01;27.32;100221.66;5052811;28;20064;-85
2021/11/12 13:33:44;;;;;;;8.88;6.88;;;;;;;20.39;27.91;100229.94;5056848;28;20056;-82
2021/11/12 13:36:19;;;;;;;8.32;7.07;;;;;;;19.23;29.58;100227.59;5045650;28;20068;-81
2021/11/12 13:38:55;;;;;;;8.18;6.50;;;;;;;18.81;30.51;100216.38;5053523;28;20045;-82
2021/11/12 13:41:25;;;;;;;11.02;7.38;;;;;;;18.33;31.36;100221.53;5055181;28;20492;-83
2021/11/12 13:44:00;;;;;;;7.88;6.43;;;;;;;18.48;31.49;100211.31;5057529;28;20053;-85
2021/11/12 13:46:28;;;;;;;7.97;6.78;;;;;;;18.59;31.38;100207.53;5049727;28;20419;-85
2021/11/12 13:48:57;;;;;;;8.13;7.00;;;;;;;18.34;31.97;100206.25;5056065;28;20041;-83
2021/11/12 13:51:28;;;;;;;9.75;7.43;;;;;;;18.12;32.49;100208.66;5050413;28;20060;-84
2021/11/12 13:53:56;;;;;;;10.00;7.55;;;;;;;18.38;32.53;100198.69;5054069;28;20045;-83
2021/11/12 13:56:24;;;;;;;11.00;7.95;;;;;;;18.24;32.37;100205.66;5058547;28;20067;-84
2021/11/12 13:59:05;;;;;;;8.68;7.68;;;;;;;17.62;32.90;100201.97;5059831;28;20045;-85
2021/11/12 14:01:33;;;;;;;8.70;7.20;;;;;;;17.41;33.88;100203.09;5062997;28;20040;-82
2021/11/12 14:04:05;;;;;;;8.85;7.00;;;;;;;17.23;33.64;100199.88;5057475;28;20072;-85
2021/11/12 14:06:36;;;;;;;10.18;7.13;;;;;;;16.82;34.59;100187.22;5056501;28;20096;-86
2021/11/12 14:09:04;;;;;;;8.85;7.03;;;;;;;16.81;34.51;100189.22;5053897;28;20053;-87
2021/11/12 14:11:34;;;;;;;8.88;7.03;;;;;;;16.41;35.44;100184.53;5054596;28;20061;-87
2021/11/12 14:14:05;;;;;;;9.60;6.82;;;;;;;15.80;36.48;100188.47;5050556;28;20045;-86
2021/11/12 14:16:37;;;;;;;8.38;6.72;;;;;;;15.97;36.18;100181.72;5053862;28;20045;-85
2021/11/12 14:19:37;;;;;;;11.68;6.72;;;;;;;15.97;35.99;100186.53;5055483;28;20056;-85
2021/11/12 14:22:12;;;;;;;10.02;6.57;;;;;;;15.62;36.83;100181.47;5054115;28;20052;-81
2021/11/12 14:24:50;;;;;;;8.13;6.28;;;;;;;15.13;37.76;100182.41;5047631;28;20045;-85
2021/11/12 14:27:27;;;;;;;8.05;6.22;;;;;;;14.97;37.82;100173.06;5057449;28;20060;-85
2021/11/12 14:30:17;;;;;;;10.18;6.80;;;;;;;15.07;37.95;100178.22;5057135;28;20052;-84
2021/11/12 14:32:53;;;;;;;7.72;6.07;;;;;;;14.90;38.55;100170.84;5050136;28;20045;-86
2021/11/12 14:35:33;;;;;;;8.63;6.22;;;;;;;14.64;38.73;100165.63;5054524;28;20048;-85
2021/11/12 14:38:14;;;;;;;8.98;6.35;;;;;;;14.72;39.01;100161.03;5058279;28;20052;-85
2021/11/12 14:43:53;;;;;;;8.25;6.20;;;;;;;14.61;39.26;100153.13;5030886;28;20045;-86
2021/11/12 14:46:25;;;;;;;8.70;6.90;;;;;;;14.06;40.33;100153.56;5054654;28;20053;-82
2021/11/12 14:48:59;;;;;;;7.60;6.25;;;;;;;14.26;39.93;100143.44;5052110;28;20056;-83
2021/11/12 14:51:38;;;;;;;8.68;6.40;;;;;;;14.05;40.24;100149.97;5049295;28;20486;-83
2021/11/12 14:54:08;;;;;;;9.13;7.03;;;;;;;14.15;40.38;100143.91;5047532;28;20049;-82
2021/11/12 14:56:36;;;;;;;10.32;7.30;;;;;;;13.83;40.94;100145.56;5051596;28;20052;-82
2021/11/12 14:59:05;;;;;;;9.40;6.82;;;;;;;13.77;41.10;100139.38;5053459;28;20049;-82
2021/11/12 15:01:35;;;;;;;8.52;6.75;;;;;;;13.87;41.37;100135.31;5054534;28;20061;-81
2021/11/12 15:04:03;;;;;;;8.98;6.53;;;;;;;13.71;41.54;100126.75;5052719;28;20056;-83
2021/11/12 15:06:32;;;;;;;9.02;6.40;;;;;;;13.78;41.22;100132.59;5052511;28;20417;-81
2021/11/12 15:09:04;;;;;;;7.47;5.70;;;;;;;13.67;41.69;100128.59;5051654;28;20056;-83
2021/11/12 15:11:33;;;;;;;8.38;5.85;;;;;;;13.64;41.93;100131.25;5053368;28;20057;-82
2021/11/12 15:14:04;;;;;;;9.40;6.90;;;;;;;13.47;42.41;100129.44;5051586;28;20072;-82
2021/11/12 15:16:33;;;;;;;7.90;6.38;;;;;;;13.45;42.15;100123.38;5054926;28;20056;-82
2021/11/12 15:19:03;;;;;;;9.50;6.90;;;;;;;13.36;42.42;100124.25;5054936;28;20055;-83
2021/11/12 15:21:33;;;;;;;;;;;;;;;13.24;42.59;100121.34;5055832;28;20049;-83
2021/11/12 15:24:11;;;;;;;7.28;5.28;;;;;;;12.97;43.26;100123.53;5055520;28;19921;-82
2021/11/12 15:29:22;;;;;;;10.43;5.97;;;;;;;12.88;43.20;100108.78;5050288;28;20044;-84